Time;durP1;ratioP1;P1;durP2;ratioP2;P2;SDS_P1;SDS_P2;PMS_P1;PMS_P2;Temp;Humidity;BMP_temperature;BMP_pressure;BME280_temperature;BME280_humidity;BME280_pressure;Samples;Min_cycle;Max_cycle;Signal;HPM_P1;HPM_P2
2022/01/22 00:00:41;;;;;;;37.05;4.40;;;8.10;99.90;;;;;;4794228;29;20077;-79
2022/01/22 00:03:07;;;;;;;41.10;4.38;;;8.40;99.90;;;;;;4802150;29;20055;-79
2022/01/22 00:05:33;;;;;;;50.40;4.55;;;8.60;99.90;;;;;;4803243;29;20058;-85
2022/01/22 00:07:58;;;;;;;36.50;4.95;;;8.80;99.90;;;;;;4789951;29;20051;-79
2022/01/22 00:10:24;;;;;;;27.92;3.80;;;8.90;99.90;;;;;;4802596;29;20078;-81
2022/01/22 00:15:23;;;;;;;30.83;3.92;;;8.70;99.90;;;;;;4802824;29;20528;-79
2022/01/22 00:17:50;;;;;;;31.38;3.60;;;10.50;99.90;;;;;;4780043;29;20055;-80
2022/01/22 00:20:17;;;;;;;37.13;4.10;;;8.70;99.90;;;;;;4791835;29;20066;-79
2022/01/22 00:22:44;;;;;;;24.13;3.03;;;10.90;99.90;;;;;;4790225;29;20109;-79
2022/01/22 00:25:12;;;;;;;25.00;4.05;;;8.60;99.90;;;;;;4802003;29;20643;-79
2022/01/22 00:27:40;;;;;;;30.85;4.10;;;9.00;99.90;;;;;;4801346;29;20082;-79
2022/01/22 00:30:09;;;;;;;20.42;4.18;;;8.70;99.90;;;;;;4801989;29;20552;-81
2022/01/22 00:32:35;;;;;;;34.05;4.32;;;8.80;99.90;;;;;;4786913;29;20058;-86
2022/01/22 00:35:02;;;;;;;39.70;4.93;;;9.30;99.90;;;;;;4797360;29;20050;-80
2022/01/22 00:37:28;;;;;;;35.30;5.07;;;8.70;99.90;;;;;;4802302;29;20146;-80
2022/01/22 00:39:53;;;;;;;33.30;4.72;;;8.80;99.90;;;;;;4802062;29;20146;-79
2022/01/22 00:42:21;;;;;;;27.95;4.28;;;8.70;99.90;;;;;;4773218;29;20134;-79
2022/01/22 00:44:49;;;;;;;31.08;4.40;;;9.40;99.90;;;;;;4801946;29;20123;-79
2022/01/22 00:47:15;;;;;;;42.92;4.40;;;8.50;99.90;;;;;;4802482;29;20064;-79
2022/01/22 00:49:41;;;;;;;37.63;4.47;;;;;;;;;;4802092;29;20047;-79
2022/01/22 00:52:07;;;;;;;32.13;4.90;;;8.80;99.90;;;;;;4801527;29;20055;-77
2022/01/22 00:54:33;;;;;;;28.75;4.70;;;10.00;99.90;;;;;;4802191;29;20519;-77
2022/01/22 00:56:58;;;;;;;29.65;5.03;;;8.70;99.90;;;;;;4801910;29;20398;-79
2022/01/22 00:59:24;;;;;;;30.27;4.93;;;10.10;99.90;;;;;;4801995;29;20394;-77
2022/01/22 01:01:50;;;;;;;30.20;5.32;;;8.80;99.90;;;;;;4754896;29;20050;-77
2022/01/22 01:04:16;;;;;;;23.98;4.65;;;8.70;99.90;;;;;;4800082;29;20043;-77
2022/01/22 01:06:41;;;;;;;31.70;4.90;;;8.90;99.90;;;;;;4788529;29;20057;-77
2022/01/22 01:09:09;;;;;;;26.65;4.50;;;8.80;99.90;;;;;;4802397;29;20086;-77
2022/01/22 01:11:40;;;;;;;27.90;4.45;;;8.80;99.90;;;;;;4802761;29;20130;-77
2022/01/22 01:14:09;;;;;;;23.08;4.15;;;8.70;99.90;;;;;;4787076;29;20110;-83
2022/01/22 01:33:14;;;;;;;24.38;4.22;;;8.90;99.90;;;;;;4804218;29;20051;-78
2022/01/22 01:35:40;;;;;;;34.15;4.43;;;10.60;99.90;;;;;;4805467;29;20466;-83
2022/01/22 01:38:07;;;;;;;37.38;4.55;;;9.00;99.90;;;;;;4805101;29;20080;-77
2022/01/22 01:40:37;;;;;;;31.10;3.83;;;9.10;99.90;;;;;;4804993;29;20063;-78
2022/01/22 01:43:08;;;;;;;21.70;3.70;;;9.00;99.90;;;;;;4804919;29;20090;-77
2022/01/22 01:45:35;;;;;;;21.27;3.58;;;8.90;99.90;;;;;;4805695;29;20086;-77
2022/01/22 01:48:06;;;;;;;26.25;3.58;;;12.40;99.90;;;;;;4802137;29;20047;-77
2022/01/22 01:50:35;;;;;;;19.52;3.53;;;9.00;99.90;;;;;;4804722;29;20079;-78
2022/01/22 01:55:49;;;;;;;25.35;4.07;;;8.90;99.90;;;;;;4805280;29;20065;-77
2022/01/22 01:58:15;;;;;;;23.98;3.42;;;9.90;99.90;;;;;;4803686;29;20063;-81
2022/01/22 02:00:41;;;;;;;16.30;3.50;;;10.30;99.90;;;;;;4793724;29;20058;-77
2022/01/22 02:03:08;;;;;;;24.77;4.10;;;9.50;99.90;;;;;;4804207;29;20133;-77
2022/01/22 02:05:36;;;;;;;36.55;3.72;;;8.90;99.90;;;;;;4804568;29;20126;-77
2022/01/22 02:08:02;;;;;;;25.40;4.10;;;6.50;99.90;;;;;;4803228;29;20097;-77
2022/01/22 02:10:31;;;;;;;27.67;4.00;;;9.00;99.90;;;;;;4804842;29;20155;-77
2022/01/22 02:23:43;;;;;;;26.52;3.00;;;9.00;99.90;;;;;;4800058;29;20125;-77
2022/01/22 02:26:10;;;;;;;27.27;3.40;;;10.70;99.90;;;;;;4800461;29;20477;-77
2022/01/22 02:28:36;;;;;;;14.32;3.13;;;9.00;99.90;;;;;;4803364;29;20456;-77
2022/01/22 02:41:22;;;;;;;32.30;3.60;;;11.20;99.90;;;;;;4803720;29;20058;-79
2022/01/22 02:43:48;;;;;;;21.85;3.50;;;9.10;99.90;;;;;;4803195;29;20102;-84
2022/01/22 02:46:22;;;;;;;23.05;3.45;;;10.60;99.90;;;;;;4804081;29;20125;-79
2022/01/22 02:48:48;;;;;;;19.70;3.17;;;9.70;99.90;;;;;;4803292;29;20469;-83
2022/01/22 02:51:14;;;;;;;18.65;3.15;;;10.20;99.90;;;;;;4794950;29;20058;-78
2022/01/22 02:53:40;;;;;;;18.23;3.10;;;9.10;99.90;;;;;;4803687;29;20055;-77
2022/01/22 02:56:06;;;;;;;14.45;2.90;;;9.40;99.90;;;;;;4803146;29;20555;-78
2022/01/22 02:58:32;;;;;;;15.63;3.10;;;9.00;99.90;;;;;;4802612;29;20054;-78
2022/01/22 03:00:58;;;;;;;16.90;3.03;;;8.90;99.90;;;;;;4803046;29;20051;-78
2022/01/22 03:03:24;;;;;;;19.85;2.90;;;;;;;;;;4803872;29;20070;-77
2022/01/22 03:05:50;;;;;;;15.02;3.22;;;8.90;99.90;;;;;;4804295;29;20474;-82
2022/01/22 03:08:15;;;;;;;14.75;3.10;;;11.00;99.90;;;;;;4802324;29;20054;-79
2022/01/22 03:10:46;;;;;;;19.20;2.90;;;;;;;;;;4803735;29;20105;-79
2022/01/22 03:18:16;;;;;;;17.60;2.83;;;8.90;99.90;;;;;;4802433;29;20149;-78
2022/01/22 03:28:23;;;;;;;22.08;3.38;;;8.90;99.90;;;;;;4800374;29;20471;-79
2022/01/22 03:30:50;;;;;;;16.50;3.45;;;9.70;99.90;;;;;;4802340;29;20051;-79
2022/01/22 03:33:19;;;;;;;21.58;3.92;;;9.60;99.90;;;;;;4802116;29;20069;-78
2022/01/22 03:35:50;;;;;;;22.42;3.97;;;8.90;99.90;;;;;;4795969;29;20061;-80
2022/01/22 03:38:16;;;;;;;23.35;3.03;;;10.20;99.90;;;;;;4804186;29;20055;-79
2022/01/22 03:40:42;;;;;;;16.08;3.05;;;9.80;99.90;;;;;;4811718;29;20574;-78
2022/01/22 03:43:07;;;;;;;11.30;2.42;;;9.30;99.90;;;;;;4802600;29;20050;-79
2022/01/22 03:45:33;;;;;;;14.07;2.50;;;9.60;99.90;;;;;;4803025;29;20078;-78
2022/01/22 03:47:59;;;;;;;18.30;2.80;;;11.10;99.90;;;;;;4802618;29;20089;-77
2022/01/22 03:50:24;;;;;;;19.10;2.85;;;9.90;99.90;;;;;;4786311;29;20055;-77
2022/01/22 03:52:50;;;;;;;21.33;3.42;;;9.50;99.90;;;;;;4797939;29;20065;-77
2022/01/22 03:58:08;;;;;;;23.55;3.30;;;9.50;99.90;;;;;;4793489;29;20108;-78
2022/01/22 04:00:33;;;;;;;14.73;2.97;;;8.90;99.90;;;;;;4802898;29;20058;-77
2022/01/22 04:06:04;;;;;;;22.17;3.97;;;9.30;99.90;;;;;;4790621;29;20073;-77
2022/01/22 04:08:29;;;;;;;20.50;3.60;;;8.90;99.90;;;;;;4801778;29;20131;-77
2022/01/22 04:10:55;;;;;;;17.33;3.53;;;;;;;;;;4803245;29;20080;-85
2022/01/22 04:13:28;;;;;;;14.73;3.50;;;8.90;99.90;;;;;;4802057;29;20051;-78
2022/01/22 04:15:54;;;;;;;18.88;3.50;;;;;;;;;;4803716;29;20055;-77
2022/01/22 04:26:53;;;;;;;20.42;3.10;;;9.10;99.90;;;;;;4800982;29;20381;-77
2022/01/22 04:29:21;;;;;;;18.35;3.15;;;8.90;99.90;;;;;;4795032;29;20047;-79
2022/01/22 04:31:47;;;;;;;14.43;3.15;;;9.40;99.90;;;;;;4803173;29;20073;-78
2022/01/22 04:34:12;;;;;;;17.58;2.90;;;9.00;99.90;;;;;;4801407;29;20570;-78
2022/01/22 04:36:38;;;;;;;19.67;3.05;;;8.80;99.90;;;;;;4802556;29;20137;-78
2022/01/22 04:39:04;;;;;;;15.35;2.67;;;9.10;99.90;;;;;;4771434;29;20413;-78
2022/01/22 04:41:30;;;;;;;14.40;2.50;;;9.00;99.90;;;;;;4787112;29;20126;-78
2022/01/22 04:44:00;;;;;;;11.77;2.75;;;9.70;99.90;;;;;;4802361;29;20054;-78
2022/01/22 04:46:52;;;;;;;20.52;3.10;;;8.60;99.90;;;;;;4801951;29;20066;-79
2022/01/22 04:57:19;;;;;;;15.00;2.53;;;9.40;99.90;;;;;;4803641;29;20127;-78
2022/01/22 04:59:45;;;;;;;26.20;3.28;;;8.90;99.90;;;;;;4805141;29;20050;-78
2022/01/22 05:02:11;;;;;;;15.88;3.22;;;9.00;99.90;;;;;;4805664;29;20050;-78
2022/01/22 05:04:37;;;;;;;15.63;2.50;;;8.90;99.90;;;;;;4805144;29;20055;-78
2022/01/22 05:07:03;;;;;;;15.90;2.67;;;9.00;99.90;;;;;;4805093;29;20074;-78
2022/01/22 05:09:29;;;;;;;19.25;3.13;;;8.90;99.90;;;;;;4803645;29;20504;-81
2022/01/22 05:11:55;;;;;;;19.30;2.85;;;10.70;99.90;;;;;;4806011;29;20043;-77
2022/01/22 05:14:21;;;;;;;16.63;2.97;;;8.50;99.90;;;;;;4804081;29;20054;-78
2022/01/22 05:16:47;;;;;;;20.95;2.88;;;9.20;99.90;;;;;;4805215;29;20121;-78
2022/01/22 05:19:19;;;;;;;21.90;3.72;;;8.90;99.90;;;;;;4805639;29;20588;-78
2022/01/22 05:21:47;;;;;;;18.48;3.28;;;9.30;99.90;;;;;;4806522;29;20071;-78
2022/01/22 05:24:17;;;;;;;15.20;2.85;;;9.50;99.90;;;;;;4804868;29;20457;-78
2022/01/22 05:39:24;;;;;;;18.48;3.05;;;10.20;99.90;;;;;;4805470;29;20752;-78
2022/01/22 05:41:51;;;;;;;21.73;3.22;;;10.70;99.90;;;;;;4805083;29;20050;-78
2022/01/22 05:44:18;;;;;;;18.53;3.77;;;8.40;99.90;;;;;;4805050;29;20057;-78
2022/01/22 05:46:44;;;;;;;27.48;3.97;;;;;;;;;;4805014;29;20047;-78
2022/01/22 05:49:09;;;;;;;23.38;3.78;;;8.60;99.90;;;;;;4792533;29;20051;-78
2022/01/22 05:51:38;;;;;;;19.70;3.92;;;8.80;99.90;;;;;;4804342;29;20046;-77
2022/01/22 05:59:49;;;;;;;23.05;3.40;;;8.50;99.90;;;;;;4801732;29;20133;-78
2022/01/22 06:02:17;;;;;;;19.98;3.63;;;8.70;99.90;;;;;;4776141;29;20133;-78
2022/01/22 06:04:44;;;;;;;19.63;3.20;;;8.80;99.90;;;;;;4804291;29;20065;-81
2022/01/22 06:07:11;;;;;;;16.53;2.70;;;9.10;99.90;;;;;;4803311;29;20096;-77
2022/01/22 06:09:44;;;;;;;27.48;4.18;;;10.90;99.90;;;;;;4790970;29;20051;-78
2022/01/22 06:14:38;;;;;;;24.48;3.63;;;8.90;99.90;;;;;;4804149;29;20123;-78
2022/01/22 06:17:04;;;;;;;23.17;3.53;;;8.60;99.90;;;;;;4804342;29;20063;-79
2022/01/22 06:19:30;;;;;;;25.52;3.47;;;8.00;99.90;;;;;;4804505;29;20134;-79
2022/01/22 06:21:56;;;;;;;24.05;3.67;;;9.00;99.90;;;;;;4803545;29;20105;-79
2022/01/22 06:24:23;;;;;;;23.10;3.97;;;6.70;99.90;;;;;;4804445;29;20047;-78
2022/01/22 06:26:49;;;;;;;31.25;4.38;;;10.80;99.90;;;;;;4794851;29;20061;-82
2022/01/22 06:29:15;;;;;;;14.88;3.50;;;9.40;99.90;;;;;;4803169;29;20054;-81
2022/01/22 06:31:41;;;;;;;21.00;3.42;;;8.60;99.90;;;;;;4803837;29;20059;-79
2022/01/22 06:34:07;;;;;;;26.95;3.85;;;9.30;99.90;;;;;;4804274;29;20125;-79
2022/01/22 06:36:33;;;;;;;22.20;3.75;;;8.50;99.90;;;;;;4788220;29;20050;-79
2022/01/22 06:39:11;;;;;;;26.80;4.05;;;8.90;99.90;;;;;;4804155;29;20522;-79
2022/01/22 06:41:44;;;;;;;17.10;3.35;;;9.00;99.90;;;;;;4787800;29;20122;-79
2022/01/22 06:44:22;;;;;;;15.50;3.30;;;9.20;99.90;;;;;;4803295;29;20053;-83
2022/01/22 06:46:51;;;;;;;17.00;3.87;;;8.90;99.90;;;;;;4803310;29;20057;-80
2022/01/22 06:49:17;;;;;;;21.13;3.50;;;8.20;99.90;;;;;;4803589;29;20130;-79
2022/01/22 06:51:43;;;;;;;18.27;3.65;;;7.60;99.90;;;;;;4781508;29;20130;-79
2022/01/22 06:54:10;;;;;;;14.73;3.78;;;9.00;99.90;;;;;;4803882;29;20050;-84
2022/01/22 06:56:37;;;;;;;19.60;4.00;;;8.90;99.90;;;;;;4804243;29;20478;-79
2022/01/22 06:59:05;;;;;;;17.05;4.20;;;9.00;99.90;;;;;;4803165;29;20099;-80
2022/01/22 07:01:32;;;;;;;12.95;3.58;;;9.30;99.90;;;;;;4803226;29;20106;-78
2022/01/22 07:03:57;;;;;;;15.63;3.08;;;9.80;99.90;;;;;;4803174;29;20484;-79
2022/01/22 07:06:24;;;;;;;15.00;3.53;;;8.70;99.90;;;;;;4803363;29;20118;-78
2022/01/22 07:08:49;;;;;;;10.35;3.20;;;9.20;99.90;;;;;;4802332;29;20419;-79
2022/01/22 07:11:16;;;;;;;15.57;3.22;;;8.80;99.90;;;;;;4802276;29;20050;-79
2022/01/22 07:13:42;;;;;;;15.20;3.72;;;7.90;99.90;;;;;;4801942;29;20068;-78
2022/01/22 07:16:08;;;;;;;17.67;3.35;;;9.50;99.90;;;;;;4803655;29;20047;-78
2022/01/22 07:18:35;;;;;;;14.68;3.53;;;9.90;99.90;;;;;;4798245;29;20150;-78
2022/01/22 07:21:14;;;;;;;15.50;3.42;;;8.80;99.90;;;;;;4798332;29;20119;-79
2022/01/22 07:26:16;;;;;;;13.35;3.35;;;7.30;99.90;;;;;;4804071;29;20489;-83
2022/01/22 07:28:42;;;;;;;20.25;4.28;;;9.50;99.90;;;;;;4802790;29;20067;-76
2022/01/22 07:31:09;;;;;;;15.98;3.00;;;8.90;99.90;;;;;;4803198;29;20438;-77
2022/01/22 07:33:35;;;;;;;14.05;2.92;;;9.00;99.90;;;;;;4786338;29;20055;-77
2022/01/22 07:36:02;;;;;;;19.13;3.60;;;8.80;99.90;;;;;;4800901;29;20050;-75
2022/01/22 07:38:28;;;;;;;13.30;3.00;;;8.80;99.90;;;;;;4796120;29;20051;-76
2022/01/22 07:40:53;;;;;;;13.82;3.25;;;8.90;99.90;;;;;;4805517;29;20589;-76
2022/01/22 07:43:19;;;;;;;17.33;3.40;;;8.70;99.90;;;;;;4786764;29;20111;-76
2022/01/22 07:45:45;;;;;;;16.80;3.70;;;8.80;99.90;;;;;;4781002;29;20043;-75
2022/01/22 07:48:11;;;;;;;17.45;3.45;;;9.10;99.90;;;;;;4807639;29;20152;-76
2022/01/22 07:50:37;;;;;;;11.63;3.30;;;8.80;99.90;;;;;;4792040;29;20165;-76
2022/01/22 07:53:03;;;;;;;14.43;3.35;;;9.10;99.90;;;;;;4811325;29;20118;-77
2022/01/22 07:55:29;;;;;;;14.90;3.47;;;10.00;99.90;;;;;;4805512;29;20538;-77
2022/01/22 07:57:55;;;;;;;10.70;2.92;;;9.30;99.90;;;;;;4803134;29;20051;-76
2022/01/22 08:00:21;;;;;;;14.15;3.25;;;10.60;99.90;;;;;;4759021;30;20055;-76
2022/01/22 08:02:47;;;;;;;9.52;2.95;;;8.90;99.90;;;;;;4795478;29;20404;-76
2022/01/22 08:05:13;;;;;;;12.95;3.05;;;8.60;99.90;;;;;;4802084;29;20460;-76
2022/01/22 08:07:43;;;;;;;17.88;3.42;;;8.80;99.90;;;;;;4802995;29;20054;-76
2022/01/22 08:10:10;;;;;;;15.38;3.67;;;9.20;99.90;;;;;;4791788;29;20078;-77
2022/01/22 08:12:37;;;;;;;15.73;3.50;;;8.90;99.90;;;;;;4804217;29;20126;-76
2022/01/22 08:15:08;;;;;;;18.88;3.55;;;8.30;99.90;;;;;;4800651;29;20216;-76
2022/01/22 08:17:34;;;;;;;17.77;3.15;;;8.40;99.90;;;;;;4813387;29;20126;-75
2022/01/22 08:20:00;;;;;;;12.30;2.63;;;8.90;99.90;;;;;;4794799;29;20476;-74
2022/01/22 08:22:25;;;;;;;12.50;2.60;;;11.10;99.90;;;;;;4789162;29;20059;-75
2022/01/22 08:24:54;;;;;;;11.55;3.20;;;8.80;99.90;;;;;;4807116;29;20123;-76
2022/01/22 08:29:46;;;;;;;17.90;2.65;;;9.30;99.90;;;;;;4806979;29;20055;-75
2022/01/22 08:37:27;;;;;;;17.70;3.35;;;8.50;99.90;;;;;;4805555;29;20067;-76
2022/01/22 08:39:53;;;;;;;21.30;2.55;;;9.90;99.90;;;;;;4806419;29;20129;-76
2022/01/22 08:42:20;;;;;;;14.18;2.78;;;8.80;99.90;;;;;;4806288;29;20054;-82
2022/01/22 08:44:47;;;;;;;16.80;2.67;;;8.80;99.90;;;;;;4781460;29;20125;-77
2022/01/22 08:47:13;;;;;;;12.48;2.20;;;10.90;99.90;;;;;;4814193;29;20054;-76
2022/01/22 08:49:39;;;;;;;16.48;2.60;;;8.80;99.90;;;;;;4800621;29;20568;-76
2022/01/22 08:52:14;;;;;;;19.02;2.63;;;9.60;99.90;;;;;;4806284;29;20240;-76
2022/01/22 08:54:40;;;;;;;14.85;2.45;;;9.80;99.90;;;;;;4805893;29;20058;-77
2022/01/22 08:57:06;;;;;;;8.35;2.35;;;9.70;99.90;;;;;;4790627;29;20059;-76
2022/01/22 08:59:32;;;;;;;15.30;2.80;;;8.70;99.90;;;;;;4805412;29;20251;-75
2022/01/22 09:01:58;;;;;;;19.83;2.67;;;8.80;99.90;;;;;;4806737;29;20181;-74
2022/01/22 09:04:24;;;;;;;15.52;2.80;;;8.80;99.90;;;;;;4806541;29;20401;-75
2022/01/22 09:06:50;;;;;;;14.85;2.55;;;8.80;99.90;;;;;;4805923;29;20047;-76
2022/01/22 09:09:16;;;;;;;20.60;3.10;;;;;;;;;;4790072;29;20035;-75
2022/01/22 09:11:44;;;;;;;18.77;3.00;;;9.00;99.90;;;;;;4806446;29;20061;-76
2022/01/22 09:14:13;;;;;;;17.20;2.85;;;9.00;99.90;;;;;;4805565;29;20117;-76
2022/01/22 09:16:39;;;;;;;14.93;2.40;;;7.90;99.90;;;;;;4805050;29;20072;-75
2022/01/22 09:19:06;;;;;;;18.75;2.90;;;9.10;99.90;;;;;;4803713;29;20057;-75
2022/01/22 09:21:38;;;;;;;14.02;2.90;;;9.00;99.90;;;;;;4789409;29;20073;-75
2022/01/22 09:24:04;;;;;;;17.45;3.50;;;10.00;99.90;;;;;;4805986;29;20063;-74
2022/01/22 09:26:33;;;;;;;21.08;3.10;;;10.30;99.90;;;;;;4805149;29;20062;-76
2022/01/22 09:29:00;;;;;;;16.83;3.45;;;9.20;99.90;;;;;;4805403;29;20058;-76
2022/01/22 09:31:27;;;;;;;19.30;3.72;;;9.20;99.90;;;;;;4805465;29;20416;-76
2022/01/22 09:33:56;;;;;;;21.83;3.13;;;10.20;99.90;;;;;;4804397;29;20054;-76
2022/01/22 09:36:22;;;;;;;12.88;3.45;;;10.30;99.90;;;;;;4779556;29;20100;-75
2022/01/22 09:38:48;;;;;;;17.90;3.97;;;11.00;99.90;;;;;;4804862;29;20370;-76
2022/01/22 09:41:15;;;;;;;21.83;4.90;;;9.10;99.90;;;;;;4789413;29;20057;-76
2022/01/22 09:43:41;;;;;;;19.10;4.22;;;8.10;99.90;;;;;;4810387;29;20116;-75
2022/01/22 09:46:08;;;;;;;21.40;4.15;;;9.20;99.90;;;;;;4805136;29;20054;-75
2022/01/22 09:48:38;;;;;;;24.38;4.80;;;9.30;99.90;;;;;;4805356;29;20400;-76
2022/01/22 09:51:04;;;;;;;19.77;4.30;;;9.20;99.90;;;;;;4798317;29;20055;-76
2022/01/22 09:53:30;;;;;;;16.60;4.50;;;9.20;99.90;;;;;;4804683;29;20055;-76
2022/01/22 09:55:55;;;;;;;25.30;4.88;;;9.30;99.90;;;;;;4789053;29;20343;-76
2022/01/22 09:58:21;;;;;;;17.55;4.57;;;;;;;;;;4804691;29;20047;-75
2022/01/22 10:00:47;;;;;;;21.85;4.93;;;9.40;99.90;;;;;;4804629;29;20055;-75
2022/01/22 10:03:19;;;;;;;27.27;5.38;;;11.30;99.90;;;;;;4793089;29;20054;-75
2022/01/22 10:05:45;;;;;;;18.92;4.53;;;9.60;99.90;;;;;;4805421;29;20070;-76
2022/01/22 10:08:31;;;;;;;26.92;5.43;;;10.70;99.90;;;;;;4804599;29;20157;-77
2022/01/22 10:11:00;;;;;;;16.58;4.78;;;11.40;99.90;;;;;;4796977;29;20442;-78
2022/01/22 10:13:44;;;;;;;19.00;4.93;;;10.30;99.90;;;;;;4803889;29;20054;-82
2022/01/22 10:16:19;;;;;;;29.58;5.50;;;9.40;99.90;;;;;;4803865;29;20397;-75
2022/01/22 10:18:46;;;;;;;19.85;5.28;;;8.30;99.90;;;;;;4803734;29;20450;-76
2022/01/22 10:21:15;;;;;;;31.35;5.20;;;9.40;99.90;;;;;;4803713;29;20053;-75
2022/01/22 10:23:41;;;;;;;22.40;5.45;;;9.50;99.90;;;;;;4803787;29;20757;-76
2022/01/22 10:26:12;;;;;;;22.73;5.57;;;9.30;99.90;;;;;;4804547;29;20053;-74
2022/01/22 10:28:50;;;;;;;29.65;5.47;;;9.00;99.90;;;;;;4802683;29;20285;-75
2022/01/22 10:31:28;;;;;;;29.37;5.20;;;9.70;99.90;;;;;;4804521;29;20058;-75
2022/01/22 10:34:08;;;;;;;24.90;5.60;;;10.00;99.90;;;;;;4803737;29;20420;-76
2022/01/22 10:36:34;;;;;;;31.67;4.85;;;9.50;99.90;;;;;;4800598;29;20039;-76
2022/01/22 10:39:00;;;;;;;24.17;5.03;;;9.60;99.90;;;;;;4802655;29;20088;-75
2022/01/22 10:41:35;;;;;;;23.92;5.93;;;9.50;99.90;;;;;;4806208;29;20074;-76
2022/01/22 10:44:02;;;;;;;30.23;5.80;;;9.60;99.90;;;;;;4802974;29;20051;-76
2022/01/22 10:46:43;;;;;;;21.88;5.07;;;9.50;99.90;;;;;;4784016;29;20057;-76
2022/01/22 10:49:14;;;;;;;24.58;5.68;;;9.60;99.90;;;;;;4795215;29;20058;-75
2022/01/22 10:52:04;;;;;;;31.80;5.80;;;9.50;99.90;;;;;;4803615;29;20124;-76
2022/01/22 10:54:35;;;;;;;33.70;5.90;;;9.50;99.90;;;;;;4803969;29;20489;-76
2022/01/22 10:57:13;;;;;;;27.10;5.97;;;10.60;99.90;;;;;;4803771;29;20100;-75
2022/01/22 10:59:56;;;;;;;24.50;5.60;;;9.60;99.90;;;;;;4802683;29;20051;-75
2022/01/22 11:02:36;;;;;;;23.23;5.30;;;10.30;99.90;;;;;;4803640;29;20580;-74
2022/01/22 11:05:02;;;;;;;31.77;5.65;;;9.80;99.90;;;;;;4804274;29;20129;-78
2022/01/22 11:07:28;;;;;;;28.05;5.47;;;9.70;99.90;;;;;;4803639;29;20070;-76
2022/01/22 11:09:55;;;;;;;21.75;4.78;;;10.50;99.90;;;;;;4802767;29;20401;-77
2022/01/22 11:12:21;;;;;;;28.83;5.03;;;9.60;99.90;;;;;;4803660;29;20146;-75
2022/01/22 11:14:46;;;;;;;26.08;5.35;;;9.50;99.90;;;;;;4802976;29;20125;-75
2022/01/22 11:17:13;;;;;;;23.73;4.85;;;9.90;99.90;;;;;;4803268;29;20100;-75
2022/01/22 11:19:43;;;;;;;24.90;5.47;;;10.20;99.90;;;;;;4803859;29;20058;-75
2022/01/22 11:22:11;;;;;;;34.33;5.85;;;10.30;99.90;;;;;;4803656;29;20057;-75
2022/01/22 11:24:45;;;;;;;30.33;5.93;;;9.40;99.90;;;;;;4803787;29;20098;-75
2022/01/22 11:27:15;;;;;;;34.55;5.38;;;9.50;99.90;;;;;;4800912;29;20057;-75
2022/01/22 11:29:51;;;;;;;26.73;5.63;;;9.70;99.90;;;;;;4803435;29;20051;-75
2022/01/22 11:32:20;;;;;;;34.22;5.93;;;9.60;99.90;;;;;;4786502;30;20520;-76
2022/01/22 11:34:49;;;;;;;31.20;5.38;;;9.30;99.90;;;;;;4796331;29;20093;-75
2022/01/22 11:37:39;;;;;;;24.90;5.45;;;9.60;99.90;;;;;;4803397;29;20139;-77
2022/01/22 11:40:19;;;;;;;26.85;5.68;;;9.60;99.90;;;;;;4803425;29;20535;-75
2022/01/22 11:42:55;;;;;;;24.33;5.85;;;8.90;99.90;;;;;;4805492;29;20051;-74
2022/01/22 11:45:41;;;;;;;28.08;5.53;;;10.60;99.90;;;;;;4805085;29;20062;-76
2022/01/22 11:48:17;;;;;;;30.90;5.45;;;9.60;99.90;;;;;;4803278;29;20473;-76
2022/01/22 11:50:46;;;;;;;28.20;5.93;;;10.00;99.90;;;;;;4803642;29;20053;-76
2022/01/22 11:53:21;;;;;;;25.15;6.50;;;11.00;99.90;;;;;;4803061;29;20057;-76
2022/01/22 11:56:11;;;;;;;21.20;6.50;;;8.50;99.90;;;;;;4800701;29;20067;-77
2022/01/22 11:58:56;;;;;;;27.40;6.30;;;9.40;99.90;;;;;;4799624;29;20050;-76
2022/01/22 12:04:16;;;;;;;26.20;7.18;;;11.60;99.90;;;;;;4803945;29;20434;-75
2022/01/22 12:07:03;;;;;;;23.30;6.55;;;10.10;99.90;;;;;;4802505;29;20062;-75
2022/01/22 12:10:15;;;;;;;30.40;6.38;;;9.80;99.90;;;;;;4803089;29;20066;-76
2022/01/22 12:15:34;;;;;;;33.13;7.65;;;9.70;99.90;;;;;;4793843;29;20051;-76
2022/01/22 12:18:13;;;;;;;37.83;7.70;;;9.70;99.90;;;;;;4802910;29;20078;-75
2022/01/22 12:23:39;;;;;;;29.70;8.52;;;9.80;99.90;;;;;;4802615;29;20071;-76
2022/01/22 12:26:05;;;;;;;32.58;7.80;;;9.80;99.90;;;;;;4803215;29;20597;-76
2022/01/22 12:28:51;;;;;;;31.25;8.27;;;9.80;99.90;;;;;;4802792;29;20046;-75
2022/01/22 12:31:37;;;;;;;27.42;7.60;;;11.60;99.90;;;;;;4801458;29;20101;-75
2022/01/22 12:34:02;;;;;;;24.23;7.65;;;9.70;99.90;;;;;;4800790;29;20055;-75
2022/01/22 12:36:40;;;;;;;27.30;8.40;;;11.90;99.90;;;;;;4802476;29;20055;-77
2022/01/22 12:39:11;;;;;;;29.00;7.88;;;10.50;99.90;;;;;;4803174;29;20529;-75
2022/01/22 12:44:06;;;;;;;20.02;7.68;;;9.70;99.90;;;;;;4802791;29;20058;-75
2022/01/22 12:46:33;;;;;;;22.52;7.68;;;9.90;99.90;;;;;;4803441;29;20061;-75
2022/01/22 12:49:00;;;;;;;27.17;8.10;;;9.90;99.90;;;;;;4802794;29;20055;-75
2022/01/22 12:51:26;;;;;;;33.70;8.70;;;11.40;99.90;;;;;;4803142;29;20078;-76
2022/01/22 12:53:53;;;;;;;26.63;7.95;;;9.70;99.90;;;;;;4802377;29;20108;-76
2022/01/22 12:59:08;;;;;;;33.95;7.47;;;10.00;99.90;;;;;;4802551;29;20378;-74
2022/01/22 13:01:46;;;;;;;29.90;8.02;;;10.00;99.90;;;;;;4802994;29;20541;-75
2022/01/22 13:04:12;;;;;;;25.73;6.73;;;10.00;99.90;;;;;;4803291;29;20125;-74
2022/01/22 13:06:46;;;;;;;27.05;7.40;;;10.00;99.90;;;;;;4802542;29;20055;-76
2022/01/22 13:09:13;;;;;;;25.38;7.15;;;10.10;99.90;;;;;;4805960;29;20043;-75
2022/01/22 13:11:47;;;;;;;19.83;6.23;;;10.80;99.90;;;;;;4806400;29;20513;-75
2022/01/22 13:14:32;;;;;;;28.92;7.05;;;10.00;99.90;;;;;;4806424;29;20046;-75
2022/01/22 13:16:58;;;;;;;29.05;6.60;;;10.10;99.90;;;;;;4806012;29;20062;-74
2022/01/22 13:19:28;;;;;;;18.33;5.43;;;10.60;99.90;;;;;;4790275;29;20047;-75
2022/01/22 13:22:02;;;;;;;27.05;5.78;;;9.50;99.90;;;;;;4789824;29;20521;-75
2022/01/22 13:24:29;;;;;;;22.70;5.07;;;9.90;99.90;;;;;;4806386;29;20074;-74
2022/01/22 13:27:04;;;;;;;22.52;5.22;;;10.00;99.90;;;;;;4806053;29;20057;-75
2022/01/22 13:29:42;;;;;;;19.05;5.10;;;10.60;99.90;;;;;;4805157;29;20053;-76
2022/01/22 13:32:26;;;;;;;29.13;5.65;;;9.90;99.90;;;;;;4797759;29;20469;-76
2022/01/22 13:38:14;;;;;;;25.02;4.95;;;10.00;99.90;;;;;;4805813;29;20066;-77
2022/01/22 13:49:26;;;;;;;24.60;4.88;;;9.80;99.90;;;;;;4803073;29;20511;-76
2022/01/22 13:51:59;;;;;;;16.75;4.53;;;10.00;99.90;;;;;;4793188;29;20047;-76
2022/01/22 13:54:33;;;;;;;29.38;4.70;;;9.90;99.90;;;;;;4804603;29;20548;-75
2022/01/22 13:57:13;;;;;;;16.33;5.00;;;9.80;99.90;;;;;;4803942;29;20456;-76
2022/01/22 13:59:44;;;;;;;26.30;5.60;;;10.00;99.90;;;;;;4804916;29;20155;-75
2022/01/22 14:04:51;;;;;;;20.17;4.88;;;9.90;99.90;;;;;;4803437;29;20090;-75
2022/01/22 14:07:25;;;;;;;31.05;4.82;;;10.00;99.90;;;;;;4803709;29;20467;-75
2022/01/22 14:10:00;;;;;;;18.80;4.50;;;9.90;99.90;;;;;;4804497;29;20165;-76
2022/01/22 14:12:49;;;;;;;20.50;4.25;;;9.80;99.90;;;;;;4804691;29;20536;-74
2022/01/22 14:15:29;;;;;;;18.95;4.07;;;9.90;99.90;;;;;;4804833;29;20051;-75
2022/01/22 14:18:19;;;;;;;17.48;3.78;;;9.90;99.90;;;;;;4803540;29;20142;-78
2022/01/22 14:20:51;;;;;;;28.75;4.00;;;9.90;99.90;;;;;;4799486;29;20047;-75
2022/01/22 14:23:22;;;;;;;16.67;2.90;;;9.90;99.90;;;;;;4817858;29;20061;-75
2022/01/22 14:26:01;;;;;;;15.40;2.58;;;9.60;99.90;;;;;;4804669;29;20046;-74
2022/01/22 14:29:01;;;;;;;17.83;2.65;;;9.70;99.90;;;;;;4807469;29;20526;-74
2022/01/22 14:31:34;;;;;;;9.63;2.38;;;9.80;99.90;;;;;;4809261;29;20171;-75
2022/01/22 14:34:12;;;;;;;11.15;2.17;;;9.90;99.90;;;;;;4807988;29;20525;-74
2022/01/22 14:36:39;;;;;;;13.82;2.53;;;8.80;99.90;;;;;;4803546;29;20062;-76
2022/01/22 14:39:27;;;;;;;24.48;2.92;;;7.90;99.90;;;;;;4789227;29;20055;-75
2022/01/22 14:44:42;;;;;;;13.02;2.60;;;10.00;99.90;;;;;;4801571;29;20054;-75
2022/01/22 14:47:18;;;;;;;14.20;2.60;;;9.30;99.90;;;;;;4804922;29;20055;-78
2022/01/22 14:49:45;;;;;;;14.63;2.70;;;11.60;99.90;;;;;;4804733;29;20054;-76
2022/01/22 14:52:13;;;;;;;18.02;3.55;;;9.20;99.90;;;;;;4788659;29;20063;-76
2022/01/22 14:54:45;;;;;;;17.70;3.03;;;9.80;99.90;;;;;;4792709;29;20063;-74
2022/01/22 14:57:12;;;;;;;10.98;3.00;;;13.10;99.90;;;;;;4804623;29;20062;-75
2022/01/22 14:59:41;;;;;;;14.18;2.95;;;11.10;99.90;;;;;;4803739;29;20074;-75
2022/01/22 15:02:07;;;;;;;22.45;3.20;;;10.00;99.90;;;;;;4803663;29;20079;-74
2022/01/22 15:04:34;;;;;;;16.08;3.30;;;10.10;99.90;;;;;;4804157;29;20442;-76
2022/01/22 15:07:03;;;;;;;17.13;3.33;;;9.20;99.90;;;;;;4768397;30;20450;-75
2022/01/22 15:09:30;;;;;;;16.27;3.28;;;9.70;99.90;;;;;;4797913;29;20039;-77
2022/01/22 15:11:56;;;;;;;23.98;3.00;;;7.70;99.90;;;;;;4803339;29;20474;-81
2022/01/22 15:14:24;;;;;;;14.35;3.13;;;10.10;99.90;;;;;;4804261;29;20059;-75
2022/01/22 15:17:03;;;;;;;13.98;2.97;;;9.80;99.90;;;;;;4804237;29;20111;-74
2022/01/22 15:19:29;;;;;;;16.58;3.20;;;9.70;99.90;;;;;;4807030;29;20057;-75